Oakville, Washington
Current Conditions -  °F | °C
As of 6:15 AM on Thursday 23 Oct 2014 (Local Time) from KCLS Reporting Station
Light Rain Light Rain  
Wind Chill: 52°   Ceiling: 2900
Heat Index: 52°   Visibility: 2.5mi
Dew Point: 50°   Wind: 5mph
Humidity: 94%   Direction: 140°SE
Pressure: 29.74"   Gusts: NA
Location:  46.84°N, 123.23°W
Report Text: KCLS 231315Z AUTO 14004KT 2 1/2SM -RA SCT007 BKN029 OVC046 11/10 A2974 RMK AO2
Loading
Personal Weather Stations






























Interactive Weather Map
Tropical Storm Tracking
New forecast layout! Learn more

10-Day Weather Forecast

Advertisements
Track Severe Weather on mobile